Time;durP1;ratioP1;P1;durP2;ratioP2;P2;SDS_P1;SDS_P2;PMS_P1;PMS_P2;Temp;Humidity;BMP_temperature;BMP_pressure;BME280_temperature;BME280_humidity;BME280_pressure;Samples;Min_cycle;Max_cycle;Signal;HPM_P1;HPM_P2
2023/06/19 00:04:32;;;;;;;9.00;4.13;;;;;;;19.15;97.56;99670.50;10292350;28;20557;-67
2023/06/19 00:09:33;;;;;;;5.25;3.47;;;;;;;19.19;98.32;99668.97;10292752;28;20043;-67
2023/06/19 00:14:35;;;;;;;8.85;3.60;;;;;;;19.26;98.57;99674.19;10292456;28;20821;-67
2023/06/19 00:19:36;;;;;;;7.35;3.55;;;;;;;19.16;98.42;99685.59;10286601;28;20046;-68
2023/06/19 00:24:37;;;;;;;6.35;3.67;;;;;;;18.78;98.69;99629.66;10282156;28;20069;-67
2023/06/19 00:29:38;;;;;;;12.65;3.88;;;;;;;19.09;98.86;99685.75;10258477;28;20051;-67
2023/06/19 00:34:39;;;;;;;8.15;3.20;;;;;;;18.40;98.73;99596.91;10252592;28;20047;-67
2023/06/19 00:39:43;;;;;;;10.18;3.42;;;;;;;18.88;99.06;99689.09;10251800;28;20043;-68
2023/06/19 00:44:43;;;;;;;;;;;;;;;19.01;99.82;99696.88;10252532;28;20086;-69
2023/06/19 00:49:44;;;;;;;13.23;3.78;;;;;;;17.92;98.33;99559.56;10266524;28;19965;-67
2023/06/19 00:54:46;;;;;;;12.32;3.35;;;;;;;18.71;99.03;99702.44;10252084;28;20126;-67
2023/06/19 00:59:46;;;;;;;9.75;3.40;;;;;;;18.56;99.09;99683.28;10251369;28;20443;-67
2023/06/19 01:04:47;;;;;;;14.75;3.47;;;;;;;18.61;99.27;99683.41;10250130;29;20050;-68
2023/06/19 01:09:53;;;;;;;15.77;3.83;;;;;;;18.40;100.00;99668.69;10252242;28;20142;-67
2023/06/19 01:14:58;;;;;;;8.10;3.72;;;;;;;18.59;100.00;99704.31;10252203;28;20079;-67
2023/06/19 01:20:00;;;;;;;13.18;4.28;;;;;;;18.20;99.35;99652.91;10251407;28;20047;-67
2023/06/19 01:25:01;;;;;;;8.95;4.15;;;;;;;18.47;99.40;99707.84;10251473;28;20055;-67
2023/06/19 01:30:04;;;;;;;14.98;4.18;;;;;;;18.01;100.00;99634.22;10251181;28;20051;-68
2023/06/19 01:35:08;;;;;;;21.40;7.10;;;;;;;18.08;100.00;99634.09;10252315;28;20050;-67
2023/06/19 01:40:11;;;;;;;26.38;5.50;;;;;;;18.60;100.00;99712.13;10251027;28;20521;-67
2023/06/19 01:45:11;;;;;;;7.40;3.72;;;;;;;18.38;99.94;99695.81;10265484;28;20059;-67
2023/06/19 01:50:12;;;;;;;17.85;4.22;;;;;;;18.37;99.93;99709.50;10287762;28;20117;-67
2023/06/19 01:55:14;;;;;;;18.90;4.32;;;;;;;18.27;100.00;99702.00;10298929;28;20043;-67
2023/06/19 02:00:15;;;;;;;14.00;5.10;;;;;;;18.46;100.00;99710.78;10296952;28;20490;-67
2023/06/19 02:05:16;;;;;;;10.02;3.97;;;;;;;18.58;100.00;99710.75;10298665;28;20518;-67
2023/06/19 02:10:17;;;;;;;13.52;4.82;;;;;;;18.83;100.00;99729.34;10298029;28;20054;-67
2023/06/19 02:15:18;;;;;;;28.08;5.45;;;;;;;18.90;100.00;99711.19;10297682;28;20049;-68
2023/06/19 02:20:20;;;;;;;9.57;4.22;;;;;;;19.33;99.75;99736.81;10297999;28;20498;-67
2023/06/19 02:25:21;;;;;;;16.13;4.97;;;;;;;19.33;99.03;99688.34;10297345;28;20138;-67
2023/06/19 02:30:22;;;;;;;14.88;3.90;;;;;;;20.15;97.35;99736.38;10297194;28;20565;-67
2023/06/19 02:35:22;;;;;;;11.32;3.88;;;;;;;20.87;94.37;99745.53;10295907;28;20045;-67
2023/06/19 02:40:23;;;;;;;10.43;4.00;;;;;;;21.51;91.95;99737.66;10297132;28;20041;-67
2023/06/19 02:45:24;;;;;;;38.40;5.38;;;;;;;22.45;89.34;99749.03;10296694;28;20396;-67
2023/06/19 02:50:25;;;;;;;17.23;4.28;;;;;;;23.55;85.32;99759.81;10295780;28;20046;-67
2023/06/19 02:55:25;;;;;;;11.20;5.20;;;;;;;24.33;80.96;99769.66;10295857;28;20097;-68
2023/06/19 03:00:28;;;;;;;16.20;6.40;;;;;;;25.02;77.54;99773.63;10293486;28;20038;-67
2023/06/19 03:05:29;;;;;;;12.10;4.80;;;;;;;25.24;73.39;99687.09;10269347;28;20086;-67
2023/06/19 03:10:30;;;;;;;26.40;4.28;;;;;;;25.77;70.64;99721.81;10268830;28;20345;-67
2023/06/19 03:15:31;;;;;;;9.38;3.78;;;;;;;25.21;69.96;99779.25;10257146;28;20047;-68
2023/06/19 03:20:32;;;;;;;9.48;4.10;;;;;;;24.62;70.60;99785.38;10294474;28;20511;-69
2023/06/19 03:25:34;;;;;;;10.52;4.35;;;;;;;24.71;68.51;99765.56;10293903;28;20054;-68
2023/06/19 03:30:35;;;;;;;10.65;4.07;;;;;;;25.12;67.27;99784.44;10294145;28;20047;-67
2023/06/19 03:35:36;;;;;;;9.05;3.85;;;;;;;25.77;65.72;99783.59;10294400;28;20045;-69
2023/06/19 03:40:37;;;;;;;7.45;3.80;;;;;;;27.15;60.76;99794.06;10291964;28;20041;-69
2023/06/19 03:45:37;;;;;;;7.72;3.67;;;;;;;27.76;57.20;99779.63;10290622;28;20073;-68
2023/06/19 03:50:38;;;;;;;9.23;3.90;;;;;;;28.65;54.82;99789.63;10278432;28;20050;-67
2023/06/19 03:55:39;;;;;;;7.53;3.95;;;;;;;28.52;52.52;99730.34;10282860;28;20055;-68
2023/06/19 04:00:41;;;;;;;5.70;4.45;;;;;;;29.29;51.43;99783.50;10262877;28;20043;-68
2023/06/19 04:05:42;;;;;;;9.45;4.28;;;;;;;29.35;50.14;99768.59;10262670;28;20043;-70
2023/06/19 04:10:43;;;;;;;9.38;4.13;;;;;;;29.71;49.16;99806.16;10280683;28;20057;-68
2023/06/19 04:15:44;;;;;;;6.57;3.92;;;;;;;29.40;48.33;99753.97;10292147;28;20046;-67
2023/06/19 04:20:45;;;;;;;9.07;3.88;;;;;;;29.96;47.93;99813.75;10264204;28;20050;-68
2023/06/19 04:25:45;;;;;;;6.43;3.63;;;;;;;29.22;45.98;99803.03;10287136;28;20047;-69
2023/06/19 04:30:46;;;;;;;7.40;3.95;;;;;;;28.63;45.64;99695.44;10285365;28;20093;-67
2023/06/19 04:35:48;;;;;;;8.63;3.70;;;;;;;29.43;43.94;99824.50;10284517;28;20039;-68
2023/06/19 04:40:52;;;;;;;6.70;3.42;;;;;;;29.30;43.68;99801.53;10286000;28;20039;-69
2023/06/19 04:45:55;;;;;;;11.60;3.22;;;;;;;29.75;43.59;99823.56;10291372;28;20142;-67
2023/06/19 04:50:56;;;;;;;10.20;3.78;;;;;;;28.80;39.34;99760.41;10292008;28;20127;-68
2023/06/19 04:55:57;;;;;;;8.20;3.13;;;;;;;28.75;38.92;99840.59;10290198;28;20081;-67
2023/06/19 05:00:57;;;;;;;17.27;3.22;;;;;;;28.76;41.02;99835.94;10291400;28;20069;-67
2023/06/19 05:05:58;;;;;;;7.57;2.78;;;;;;;28.45;38.67;99779.09;10291773;28;20039;-68
2023/06/19 05:10:59;;;;;;;8.20;3.40;;;;;;;27.87;38.88;99793.94;10292185;28;20042;-67
2023/06/19 05:16:00;;;;;;;9.45;3.00;;;;;;;26.80;39.81;99695.28;10290621;28;20121;-67
2023/06/19 05:21:00;;;;;;;7.65;3.03;;;;;;;27.31;41.14;99836.44;10291306;28;20086;-68
2023/06/19 05:26:02;;;;;;;9.85;3.38;;;;;;;27.16;41.63;99830.34;10290364;28;20547;-69
2023/06/19 05:31:04;;;;;;;7.72;3.25;;;;;;;26.64;41.86;99761.94;10280996;28;20074;-67
2023/06/19 05:36:05;;;;;;;9.73;3.33;;;;;;;27.25;43.00;99853.13;10288998;28;20077;-68
2023/06/19 05:41:06;;;;;;;11.23;2.97;;;;;;;27.57;44.15;99855.19;10284840;28;20310;-68
2023/06/19 05:46:07;;;;;;;11.48;2.92;;;;;;;27.69;43.51;99862.94;10277266;28;20055;-68
2023/06/19 05:51:08;;;;;;;10.27;3.22;;;;;;;27.66;43.44;99844.44;10276832;28;20043;-69
2023/06/19 05:56:09;;;;;;;9.30;3.05;;;;;;;27.68;42.95;99864.06;10274719;28;20034;-68
2023/06/19 06:01:10;;;;;;;9.75;3.50;;;;;;;27.44;43.14;99869.56;10283406;28;20086;-67
2023/06/19 06:06:11;;;;;;;6.50;3.13;;;;;;;27.63;43.32;99853.22;10277190;28;20043;-66
2023/06/19 06:11:11;;;;;;;19.63;3.78;;;;;;;27.54;44.02;99858.50;10273360;28;20123;-66
2023/06/19 06:16:12;;;;;;;6.30;2.97;;;;;;;27.75;42.40;99853.59;10280711;28;20043;-68
2023/06/19 06:21:13;;;;;;;6.35;2.97;;;;;;;27.91;42.64;99852.31;10279180;28;20134;-69
2023/06/19 06:26:14;;;;;;;8.30;2.97;;;;;;;27.98;42.31;99854.66;10258487;28;20089;-67
2023/06/19 06:31:15;;;;;;;7.55;3.50;;;;;;;27.41;43.35;99791.03;10268220;28;20051;-68
2023/06/19 06:36:16;;;;;;;7.70;3.03;;;;;;;28.09;41.95;99860.75;10294291;28;20510;-69
2023/06/19 06:41:17;;;;;;;7.07;3.67;;;;;;;27.44;42.47;99840.34;10296805;28;20045;-67
2023/06/19 06:46:17;;;;;;;7.18;2.85;;;;;;;27.59;43.77;99854.91;10295122;28;20065;-67
2023/06/19 06:51:18;;;;;;;9.25;3.33;;;;;;;28.00;43.49;99852.47;10294492;28;20074;-67
2023/06/19 06:56:19;;;;;;;6.65;3.00;;;;;;;27.85;42.31;99844.47;10296389;28;20039;-68
2023/06/19 07:01:20;;;;;;;9.25;3.42;;;;;;;27.31;42.97;99768.25;10295823;28;20051;-67
2023/06/19 07:06:21;;;;;;;13.60;3.58;;;;;;;27.26;43.16;99790.13;10295312;28;20046;-68
2023/06/19 07:11:22;;;;;;;9.20;3.55;;;;;;;27.04;42.91;99765.28;10294728;28;20395;-68
2023/06/19 07:16:22;;;;;;;9.65;3.42;;;;;;;27.46;43.57;99834.59;10295348;28;20122;-68
2023/06/19 07:21:24;;;;;;;9.10;3.95;;;;;;;27.70;42.75;99829.94;10293143;28;20093;-68
2023/06/19 07:26:24;;;;;;;11.48;3.55;;;;;;;27.70;41.96;99755.41;10293209;28;20055;-68
2023/06/19 07:31:25;;;;;;;14.43;3.58;;;;;;;28.38;40.72;99833.28;10294635;28;20041;-67
2023/06/19 07:36:26;;;;;;;8.98;3.05;;;;;;;28.45;40.17;99803.69;10294600;28;20046;-67
2023/06/19 07:41:26;;;;;;;10.15;3.83;;;;;;;29.00;39.92;99831.09;10294506;28;20035;-67
2023/06/19 07:46:27;;;;;;;10.43;3.65;;;;;;;28.79;39.68;99797.06;10294332;28;20069;-67
2023/06/19 07:51:28;;;;;;;5.85;2.92;;;;;;;28.65;39.61;99777.91;10293269;28;20054;-66
2023/06/19 07:56:29;;;;;;;9.68;2.92;;;;;;;28.92;40.03;99830.97;10292285;28;20133;-67
2023/06/19 08:01:30;;;;;;;5.80;2.97;;;;;;;28.67;39.64;99820.22;10294588;28;20070;-68
2023/06/19 08:06:31;;;;;;;6.78;2.92;;;;;;;28.53;39.76;99837.69;10293672;28;20133;-66
2023/06/19 08:11:32;;;;;;;10.13;3.80;;;;;;;28.51;40.05;99818.88;10292768;28;20094;-67
2023/06/19 08:16:32;;;;;;;12.70;2.83;;;;;;;28.52;40.04;99776.78;10289093;28;20049;-65
2023/06/19 08:21:33;;;;;;;8.63;3.05;;;;;;;28.42;39.83;99755.94;10288541;28;20068;-66
2023/06/19 08:26:34;;;;;;;8.18;3.47;;;;;;;29.02;40.68;99826.16;10293295;28;20403;-66
2023/06/19 08:31:35;;;;;;;7.32;3.20;;;;;;;29.06;39.52;99813.50;10290982;28;20050;-67
2023/06/19 08:36:36;;;;;;;8.38;3.55;;;;;;;28.97;39.50;99826.22;10291602;28;20045;-66
2023/06/19 08:41:38;;;;;;;13.35;3.53;;;;;;;28.45;40.45;99754.53;10292276;28;20069;-66
2023/06/19 08:46:40;;;;;;;6.70;3.30;;;;;;;28.84;39.36;99832.50;10290137;28;20078;-66
2023/06/19 08:51:41;;;;;;;16.70;3.50;;;;;;;28.95;41.05;99816.69;10289394;28;20051;-66
2023/06/19 08:56:41;;;;;;;14.82;3.58;;;;;;;28.98;40.88;99805.16;10290772;28;20432;-66
2023/06/19 09:01:53;;;;;;;7.75;3.05;;;;;;;28.89;38.77;99807.78;10289530;28;20047;-67
2023/06/19 09:07:02;;;;;;;11.65;2.95;;;;;;;28.89;38.84;99830.47;10289974;28;20066;-65
2023/06/19 09:12:05;;;;;;;21.52;3.90;;;;;;;28.99;40.64;99813.06;10291109;28;20057;-68
2023/06/19 09:17:10;;;;;;;12.77;3.38;;;;;;;29.35;38.32;99824.13;10291092;28;20035;-65
2023/06/19 09:22:11;;;;;;;8.95;3.63;;;;;;;28.53;37.65;99731.94;10290146;28;20053;-66
2023/06/19 09:27:15;;;;;;;9.02;3.40;;;;;;;29.24;37.82;99810.97;10289670;28;20050;-66
2023/06/19 09:32:24;;;;;;;8.85;4.22;;;;;;;29.42;37.67;99803.75;10290429;28;20154;-66
2023/06/19 09:37:27;;;;;;;5.88;3.75;;;;;;;29.75;37.02;99807.13;10288141;28;20406;-66
2023/06/19 09:42:35;;;;;;;12.10;3.08;;;;;;;30.01;36.29;99788.19;10258332;28;20435;-66
2023/06/19 09:47:43;;;;;;;9.38;3.17;;;;;;;30.10;36.96;99793.72;10248655;28;20043;-66
2023/06/19 09:52:44;;;;;;;13.07;3.75;;;;;;;29.88;36.85;99735.09;10255909;28;20442;-66
2023/06/19 09:57:47;;;;;;;8.80;3.40;;;;;;;30.36;36.12;99786.50;10290301;28;20038;-67
2023/06/19 10:02:48;;;;;;;12.77;3.63;;;;;;;30.24;35.25;99789.84;10290800;28;20578;-66
2023/06/19 10:07:49;;;;;;;7.05;3.30;;;;;;;30.34;35.67;99782.47;10289758;28;20043;-69
2023/06/19 10:12:51;;;;;;;9.85;3.25;;;;;;;29.94;35.44;99711.13;10297687;28;20050;-67
2023/06/19 10:17:58;;;;;;;7.05;2.80;;;;;;;30.33;34.83;99780.84;10297733;28;20046;-67
2023/06/19 10:23:08;;;;;;;9.65;3.10;;;;;;;30.30;33.74;99768.56;10297037;28;20039;-66
2023/06/19 10:28:28;;;;;;;7.78;3.13;;;;;;;30.33;33.04;99769.88;10296788;28;20046;-67
2023/06/19 10:33:33;;;;;;;7.60;3.50;;;;;;;30.35;34.22;99773.94;10297626;28;20102;-66
2023/06/19 10:38:34;;;;;;;9.90;3.65;;;;;;;30.33;34.36;99756.97;10296234;28;20458;-67
2023/06/19 10:43:34;;;;;;;7.63;3.10;;;;;;;30.41;33.82;99756.22;10296147;28;20065;-69
2023/06/19 10:48:35;;;;;;;5.65;3.05;;;;;;;30.42;34.18;99755.13;10297615;28;20066;-66
2023/06/19 10:53:36;;;;;;;7.28;3.20;;;;;;;30.26;33.41;99751.16;10290201;28;20038;-69
2023/06/19 10:58:37;;;;;;;7.90;3.13;;;;;;;30.29;33.39;99741.50;10286498;28;20050;-68
2023/06/19 11:03:38;;;;;;;11.35;3.60;;;;;;;30.36;33.49;99753.59;10294378;28;20042;-67
2023/06/19 11:08:38;;;;;;;8.60;2.92;;;;;;;30.27;33.85;99739.06;10280750;28;20042;-67
2023/06/19 11:13:39;;;;;;;10.60;3.03;;;;;;;30.24;33.72;99726.00;10280447;28;20043;-67
2023/06/19 11:18:40;;;;;;;16.70;3.30;;;;;;;30.34;33.52;99735.91;10282050;28;20200;-66
2023/06/19 11:23:48;;;;;;;9.18;3.22;;;;;;;30.34;32.75;99731.22;10278772;28;20038;-67
2023/06/19 11:28:49;;;;;;;9.18;2.80;;;;;;;30.53;33.88;99730.97;10274797;28;20090;-67
2023/06/19 11:33:58;;;;;;;13.15;2.92;;;;;;;30.62;32.09;99726.31;10273353;28;20446;-66
2023/06/19 11:38:59;;;;;;;9.13;3.30;;;;;;;30.10;32.66;99657.59;10270918;28;20042;-66
2023/06/19 11:44:09;;;;;;;9.73;3.17;;;;;;;30.25;31.30;99703.78;10276290;28;20059;-66
2023/06/19 11:49:17;;;;;;;4.15;2.78;;;;;;;30.19;31.55;99705.00;10270373;28;20142;-67
2023/06/19 11:54:18;;;;;;;12.27;3.05;;;;;;;30.17;33.37;99693.53;10283470;28;20462;-66
2023/06/19 11:59:19;;;;;;;16.98;3.28;;;;;;;30.25;32.35;99694.75;10292916;28;20185;-66
2023/06/19 12:04:20;;;;;;;6.30;2.67;;;;;;;30.18;30.79;99700.63;10292488;28;20042;-67
2023/06/19 12:09:21;;;;;;;8.75;2.75;;;;;;;29.29;31.30;99581.09;10287570;28;20053;-66
2023/06/19 12:14:24;;;;;;;13.77;3.30;;;;;;;30.12;32.03;99698.34;10273915;28;20069;-67
2023/06/19 12:19:26;;;;;;;10.05;3.10;;;;;;;29.93;31.04;99706.78;10280993;28;20517;-67
2023/06/19 12:24:26;;;;;;;12.60;3.25;;;;;;;29.74;30.98;99706.97;10293252;28;20056;-67
2023/06/19 12:29:27;;;;;;;9.40;2.53;;;;;;;29.47;30.78;99647.66;10291861;28;20043;-66
2023/06/19 12:34:28;;;;;;;6.60;3.05;;;;;;;29.41;30.88;99698.16;10291764;28;20153;-66
2023/06/19 12:39:29;;;;;;;9.07;2.83;;;;;;;29.40;30.40;99699.25;10291234;28;20513;-67
2023/06/19 12:44:30;;;;;;;6.22;3.25;;;;;;;29.15;30.66;99723.34;10293414;28;20059;-66
2023/06/19 12:49:31;;;;;;;15.02;3.60;;;;;;;27.98;31.12;99598.06;10290632;28;20137;-67
2023/06/19 12:54:32;;;;;;;10.32;3.40;;;;;;;28.59;31.36;99724.47;10291223;28;20042;-66
2023/06/19 12:59:33;;;;;;;15.20;3.03;;;;;;;28.20;32.37;99663.69;10292699;28;20410;-66
2023/06/19 13:04:34;;;;;;;12.48;3.65;;;;;;;28.50;32.95;99729.00;10292186;28;20053;-67
2023/06/19 13:09:35;;;;;;;8.52;3.25;;;;;;;28.34;32.09;99709.34;10291653;28;20047;-66
2023/06/19 13:14:37;;;;;;;15.05;3.25;;;;;;;28.19;33.10;99696.78;10288949;28;20050;-66
2023/06/19 13:19:38;;;;;;;9.68;3.42;;;;;;;27.77;32.25;99642.06;10291333;28;20075;-66
2023/06/19 13:24:38;;;;;;;9.77;3.17;;;;;;;28.34;31.83;99710.16;10290835;28;20066;-69
2023/06/19 13:29:40;;;;;;;11.63;3.88;;;;;;;28.63;31.75;99712.63;10291183;28;20042;-66
2023/06/19 13:34:41;;;;;;;14.32;3.40;;;;;;;28.83;31.50;99711.38;10290756;28;20039;-66
2023/06/19 13:39:42;;;;;;;10.30;3.10;;;;;;;28.68;32.56;99687.91;10291630;28;20126;-66
2023/06/19 13:44:43;;;;;;;8.18;3.30;;;;;;;28.55;31.42;99655.94;10294254;28;20141;-66
2023/06/19 13:49:44;;;;;;;17.65;3.25;;;;;;;28.95;31.03;99680.00;10299723;28;20046;-66
2023/06/19 13:54:45;;;;;;;17.70;3.40;;;;;;;28.90;31.36;99700.06;10298507;28;20034;-66
2023/06/19 13:59:47;;;;;;;9.70;3.55;;;;;;;28.52;32.08;99694.81;10298432;28;20085;-66
2023/06/19 14:04:48;;;;;;;8.20;3.05;;;;;;;27.79;31.12;99632.78;10298620;28;20605;-65
2023/06/19 14:09:48;;;;;;;13.13;3.72;;;;;;;27.91;32.00;99688.53;10299115;28;20068;-66
2023/06/19 14:14:49;;;;;;;8.38;3.28;;;;;;;27.47;31.67;99646.09;10297280;28;20407;-66
2023/06/19 14:19:50;;;;;;;9.35;3.28;;;;;;;27.82;32.56;99719.50;10301561;28;20454;-67
2023/06/19 14:24:58;;;;;;;22.73;3.53;;;;;;;27.16;32.20;99631.31;10297814;28;20038;-66
2023/06/19 14:29:59;;;;;;;11.05;3.05;;;;;;;27.50;31.92;99691.06;10298528;28;20038;-67
2023/06/19 14:34:59;;;;;;;12.45;3.55;;;;;;;27.14;31.84;99655.31;10299228;28;20049;-66
2023/06/19 14:40:01;;;;;;;11.80;3.20;;;;;;;27.40;31.77;99723.94;10291105;28;20078;-67
2023/06/19 14:45:02;;;;;;;5.63;2.90;;;;;;;27.18;31.88;99713.63;10296339;28;20101;-66
2023/06/19 14:50:03;;;;;;;7.65;3.35;;;;;;;27.22;32.28;99731.84;10296860;28;20042;-67
2023/06/19 14:55:04;;;;;;;8.35;2.97;;;;;;;27.05;32.37;99723.31;10295375;28;20070;-66
2023/06/19 15:00:06;;;;;;;8.30;3.20;;;;;;;26.58;32.86;99678.66;10297290;28;20047;-66
2023/06/19 15:05:07;;;;;;;7.55;2.63;;;;;;;26.93;32.19;99742.81;10295566;28;20038;-67
2023/06/19 15:10:09;;;;;;;6.43;3.10;;;;;;;26.41;31.91;99670.91;10295179;28;20414;-66
2023/06/19 15:15:10;;;;;;;17.30;3.10;;;;;;;26.35;32.19;99674.78;10295138;28;20092;-68
2023/06/19 15:20:11;;;;;;;11.90;2.72;;;;;;;26.71;32.32;99745.22;10295489;28;20047;-66
2023/06/19 15:25:12;;;;;;;12.00;2.83;;;;;;;26.60;31.91;99750.00;10292828;28;20050;-66
2023/06/19 15:30:13;;;;;;;8.95;2.38;;;;;;;26.51;32.12;99765.34;10294903;28;20704;-66
2023/06/19 15:35:14;;;;;;;8.43;2.92;;;;;;;26.39;32.56;99754.81;10293942;28;20414;-67
2023/06/19 15:40:15;;;;;;;9.95;2.65;;;;;;;26.29;32.13;99746.72;10295146;28;20039;-67
2023/06/19 15:45:16;;;;;;;14.90;2.75;;;;;;;26.25;32.12;99753.84;10294860;28;20067;-67
2023/06/19 15:50:16;;;;;;;8.75;2.30;;;;;;;26.15;32.09;99761.00;10292649;28;20057;-65
2023/06/19 15:55:17;;;;;;;7.32;2.83;;;;;;;26.00;32.33;99738.56;10293652;28;20050;-66
2023/06/19 16:00:18;;;;;;;11.90;2.85;;;;;;;26.04;32.28;99764.09;10293890;28;20039;-66
2023/06/19 16:05:19;;;;;;;7.85;2.47;;;;;;;25.85;32.51;99747.66;10294160;28;20101;-66
2023/06/19 16:10:20;;;;;;;10.00;2.80;;;;;;;25.70;32.83;99735.75;10290520;28;20047;-66
2023/06/19 16:15:27;;;;;;;7.88;2.17;;;;;;;25.56;32.68;99732.03;10290065;28;20038;-67
2023/06/19 16:20:28;;;;;;;10.52;2.08;;;;;;;25.71;32.35;99771.94;10286906;28;20069;-66
2023/06/19 16:25:29;;;;;;;12.68;2.80;;;;;;;24.81;32.46;99656.88;10287686;28;20553;-66
2023/06/19 16:30:29;;;;;;;12.10;3.30;;;;;;;25.51;33.05;99798.13;10291660;28;20054;-66
2023/06/19 16:35:30;;;;;;;8.82;3.20;;;;;;;24.85;32.59;99706.00;10293433;28;20038;-66
2023/06/19 16:40:32;;;;;;;12.27;3.70;;;;;;;25.32;33.19;99813.47;10291280;28;20490;-66
2023/06/19 16:45:32;;;;;;;13.77;3.45;;;;;;;25.14;32.47;99811.38;10291535;28;20510;-65
2023/06/19 16:50:35;;;;;;;9.32;3.05;;;;;;;25.13;33.04;99826.00;10291424;28;20046;-66
2023/06/19 16:55:35;;;;;;;9.57;2.70;;;;;;;25.04;33.54;99821.16;10289774;28;20113;-67
2023/06/19 17:00:36;;;;;;;13.15;2.97;;;;;;;24.76;33.25;99800.84;10290884;28;20042;-67
2023/06/19 17:05:37;;;;;;;11.48;5.30;;;;;;;24.89;33.50;99836.66;10291994;28;20521;-69
2023/06/19 17:10:38;;;;;;;7.45;2.55;;;;;;;24.55;33.70;99805.50;10284029;28;20048;-70
2023/06/19 17:15:39;;;;;;;7.53;2.10;;;;;;;24.25;33.69;99784.59;10287573;28;20454;-69
2023/06/19 17:20:42;;;;;;;10.18;2.50;;;;;;;24.34;33.76;99822.84;10289620;28;20097;-70
2023/06/19 17:25:43;;;;;;;6.73;2.67;;;;;;;23.97;34.17;99794.09;10296907;28;20050;-71
2023/06/19 17:30:44;;;;;;;5.28;1.80;;;;;;;24.36;35.30;99913.00;10298188;28;20046;-70
2023/06/19 17:35:44;;;;;;;7.43;2.08;;;;;;;24.14;36.13;99911.34;10298986;28;20042;-69
2023/06/19 17:40:45;;;;;;;7.93;2.95;;;;;;;23.93;37.15;99928.63;10298501;28;20053;-69
2023/06/19 17:45:46;;;;;;;6.93;1.80;;;;;;;23.19;38.25;99834.78;10297509;28;20062;-68
2023/06/19 17:50:47;;;;;;;7.53;1.70;;;;;;;23.45;39.40;99917.00;10298208;28;20078;-69
2023/06/19 17:55:48;;;;;;;3.85;2.10;;;;;;;23.24;40.43;99908.78;10299001;28;20133;-69
2023/06/19 18:00:48;;;;;;;4.43;1.70;;;;;;;23.03;39.37;99890.75;10298946;28;20122;-70
2023/06/19 18:05:49;;;;;;;4.78;2.00;;;;;;;23.28;38.49;99921.81;10298301;28;20046;-69
2023/06/19 18:10:50;;;;;;;6.57;1.98;;;;;;;22.61;38.23;99802.16;10298000;28;20487;-69
2023/06/19 18:15:51;;;;;;;6.30;1.95;;;;;;;23.29;38.27;99904.47;10296575;28;20050;-70
2023/06/19 18:20:52;;;;;;;6.43;1.75;;;;;;;22.92;37.39;99815.91;10294830;28;20418;-69
2023/06/19 18:25:52;;;;;;;5.57;1.90;;;;;;;23.30;36.92;99868.16;10298097;28;20501;-69
2023/06/19 18:30:53;;;;;;;8.43;2.20;;;;;;;22.49;36.96;99744.69;10297132;28;20042;-69
2023/06/19 18:35:54;;;;;;;5.00;1.65;;;;;;;23.27;37.10;99879.50;10296544;28;20094;-70
2023/06/19 18:40:55;;;;;;;5.20;1.80;;;;;;;22.99;37.33;99840.91;10296543;28;20558;-70
2023/06/19 18:45:56;;;;;;;10.18;2.03;;;;;;;22.95;37.56;99839.78;10296819;28;20101;-70
2023/06/19 18:50:56;;;;;;;6.45;2.00;;;;;;;23.15;37.26;99879.72;10279741;28;20121;-71
2023/06/19 18:55:57;;;;;;;12.57;2.13;;;;;;;23.31;38.11;99895.00;10296191;28;20050;-70
2023/06/19 19:00:58;;;;;;;9.40;2.17;;;;;;;23.43;39.83;99928.13;10294989;28;20049;-71
2023/06/19 19:05:59;;;;;;;10.93;1.90;;;;;;;23.00;39.29;99862.31;10295657;28;20134;-70
2023/06/19 19:11:00;;;;;;;6.10;1.80;;;;;;;23.34;39.62;99921.56;10295193;28;20054;-71
2023/06/19 19:16:01;;;;;;;10.55;2.50;;;;;;;23.31;39.69;99926.72;10296178;28;20066;-70
2023/06/19 19:21:02;;;;;;;19.17;2.08;;;;;;;23.12;40.15;99893.78;10295016;28;20035;-70
2023/06/19 19:26:02;;;;;;;15.48;2.40;;;;;;;23.12;41.93;99902.72;10294832;28;20388;-69
2023/06/19 19:31:04;;;;;;;19.45;2.35;;;;;;;23.03;45.07;99920.56;10293573;28;20053;-70
2023/06/19 19:36:06;;;;;;;7.57;1.80;;;;;;;22.95;42.22;99908.31;10295046;28;20038;-70
2023/06/19 19:41:07;;;;;;;10.35;2.20;;;;;;;22.45;42.53;99832.91;10294813;28;20047;-70
2023/06/19 19:46:08;;;;;;;16.23;2.25;;;;;;;22.90;40.97;99891.19;10294802;28;20403;-70
2023/06/19 19:51:11;;;;;;;9.77;2.20;;;;;;;22.67;40.00;99863.38;10294318;28;20046;-69
2023/06/19 19:56:12;;;;;;;5.65;1.50;;;;;;;22.30;39.97;99810.06;10293439;28;20485;-71
2023/06/19 20:01:12;;;;;;;5.88;1.92;;;;;;;22.64;39.37;99880.16;10293514;28;20098;-70
2023/06/19 20:06:13;;;;;;;4.70;1.88;;;;;;;22.50;39.71;99849.22;10293174;28;20066;-70
2023/06/19 20:11:14;;;;;;;8.55;2.00;;;;;;;22.47;41.09;99868.66;10291848;28;20149;-71
2023/06/19 20:16:15;;;;;;;7.13;1.88;;;;;;;21.79;40.54;99771.72;10292144;28;20138;-70
2023/06/19 20:21:16;;;;;;;3.78;1.58;;;;;;;22.11;40.73;99827.75;10294037;28;20050;-70
2023/06/19 20:26:17;;;;;;;7.35;1.75;;;;;;;21.72;41.48;99789.22;10292349;28;20047;-69
2023/06/19 20:31:18;;;;;;;3.75;1.75;;;;;;;21.83;42.43;99835.03;10292740;28;20453;-70
2023/06/19 20:36:18;;;;;;;6.45;2.10;;;;;;;21.75;42.85;99823.88;10293416;28;20138;-69
2023/06/19 20:41:19;;;;;;;5.00;1.63;;;;;;;21.31;43.83;99767.13;10292789;28;20121;-68
2023/06/19 20:46:20;;;;;;;6.60;2.08;;;;;;;21.40;44.39;99795.38;10292692;28;20108;-69
2023/06/19 20:51:22;;;;;;;9.75;1.95;;;;;;;21.49;45.10;99825.47;10292261;28;20042;-70
2023/06/19 20:56:22;;;;;;;6.43;1.88;;;;;;;21.08;46.08;99768.19;10291363;28;20043;-69
2023/06/19 21:01:24;;;;;;;6.55;2.33;;;;;;;21.33;46.66;99837.91;10291867;28;20039;-69
2023/06/19 21:06:25;;;;;;;4.55;1.88;;;;;;;21.06;47.92;99827.03;10291854;28;20062;-69
2023/06/19 21:11:26;;;;;;;7.10;2.13;;;;;;;21.15;48.70;99841.78;10291210;28;20067;-69
2023/06/19 21:16:26;;;;;;;8.20;2.17;;;;;;;21.14;49.42;99853.63;10290924;28;20042;-69
2023/06/19 21:21:27;;;;;;;8.07;1.60;;;;;;;20.77;49.95;99805.59;10292343;28;20045;-71
2023/06/19 21:26:28;;;;;;;9.55;2.10;;;;;;;20.40;50.88;99760.25;10291276;28;20046;-70
2023/06/19 21:31:29;;;;;;;5.50;1.90;;;;;;;21.22;51.12;99872.09;10290608;28;20081;-69
2023/06/19 21:36:30;;;;;;;6.55;1.85;;;;;;;21.24;51.81;99883.50;10291243;28;20035;-69
2023/06/19 21:41:30;;;;;;;11.68;2.20;;;;;;;21.12;52.64;99871.94;10290922;28;20043;-70
2023/06/19 21:46:31;;;;;;;6.28;2.05;;;;;;;21.13;52.81;99876.31;10290689;28;20055;-69
2023/06/19 21:51:34;;;;;;;9.25;1.95;;;;;;;21.11;53.07;99887.34;10290733;28;20065;-68
2023/06/19 21:56:35;;;;;;;11.27;1.95;;;;;;;20.94;53.41;99873.88;10290312;28;20049;-69
2023/06/19 22:01:36;;;;;;;5.47;1.77;;;;;;;21.16;53.43;99905.53;10290876;28;20483;-70
2023/06/19 22:06:37;;;;;;;7.85;2.00;;;;;;;21.15;54.07;99906.59;10293087;28;20057;-70
2023/06/19 22:11:37;;;;;;;11.23;2.00;;;;;;;20.79;54.34;99853.94;10297800;28;20561;-70
2023/06/19 22:16:38;;;;;;;5.25;1.65;;;;;;;20.94;54.57;99867.69;10296642;28;20498;-70
2023/06/19 22:21:42;;;;;;;6.18;1.60;;;;;;;21.00;54.65;99880.19;10297176;28;20047;-68
2023/06/19 22:26:43;;;;;;;5.80;1.65;;;;;;;20.63;54.46;99824.00;10295912;28;20078;-70
2023/06/19 22:31:43;;;;;;;9.85;1.77;;;;;;;20.44;54.81;99791.03;10298167;28;20517;-69
2023/06/19 22:36:45;;;;;;;11.25;1.90;;;;;;;20.92;55.08;99867.91;10297265;28;20034;-69
2023/06/19 22:41:45;;;;;;;5.75;1.60;;;;;;;21.01;55.23;99900.72;10296697;28;20039;-69
2023/06/19 22:46:46;;;;;;;5.35;2.22;;;;;;;20.71;55.59;99863.28;10296170;28;20046;-70
2023/06/19 22:51:47;;;;;;;6.50;1.73;;;;;;;20.83;56.03;99882.09;10295687;28;20124;-70
2023/06/19 22:56:48;;;;;;;8.25;1.98;;;;;;;20.41;56.27;99826.63;10295812;28;20038;-69
2023/06/19 23:01:48;;;;;;;7.13;1.60;;;;;;;20.70;56.65;99886.75;10295781;28;20046;-69
2023/06/19 23:06:51;;;;;;;5.50;1.75;;;;;;;20.66;57.06;99893.69;10295975;28;20109;-69
2023/06/19 23:11:52;;;;;;;9.07;1.83;;;;;;;20.20;57.64;99821.94;10293989;28;20042;-70
2023/06/19 23:16:53;;;;;;;7.82;1.73;;;;;;;20.39;57.69;99863.78;10295233;28;20050;-70